Atlantic Clover — 3FVD6 — position and weather

sailwx.info

Track history (hours):
 
Tides and Currents Weather Stations Pressure Air Temp Water Temp Dewpoint Dewpoint Depression Visibility Wind Speed Wind Dir Waves Ship Positions

Atlantic Clover

Last reported at 2014-Oct-20 17:33 UTC. Time now 2014-Oct-20 17:57 UTC.
Position N 44°44' E 037°48'.

Length 180 m; draft 6.3 m.

Type: Cargo ship. MMSI: 371263000.

Date/timePositionNaut miles runAvg speedWind from/ knotsBaromVisibWave heightAir tempDewpointWater temp
2014-Oct-20 17:33N 44°44' E 037°48'0 0.0
2014-Oct-20 16:33N 44°44' E 037°48'0 0.0
2014-Oct-20 15:33N 44°44' E 037°48'0 0.0
2014-Oct-20 14:33N 44°44' E 037°48'0 0.0
2014-Oct-20 13:33N 44°44' E 037°48'0 0.0
2014-Oct-20 12:33N 44°44' E 037°48'0 0.0
2014-Oct-20 11:33N 44°44' E 037°48'0 0.0
2014-Oct-20 10:33N 44°44' E 037°48'0 0.0
2014-Oct-20 09:33N 44°44' E 037°48'0 0.0
2014-Oct-20 08:33N 44°44' E 037°48'0 0.0
2014-Oct-20 07:33N 44°44' E 037°48'0 0.0
2014-Oct-20 06:33N 44°44' E 037°48'0 0.0
2014-Oct-20 05:33N 44°44' E 037°48'0 0.0
2014-Oct-20 04:33N 44°44' E 037°48'0 0.0
2014-Oct-20 03:34N 44°44' E 037°48'2 1.9
2014-Oct-20 02:33N 44°42' E 037°49'8 8.3
2014-Oct-20 01:33N 44°34' E 037°51'6 5.9
2014-Oct-20 00:34N 44°28' E 037°52'0 0.4
2014-Oct-19 23:33N 44°28' E 037°52'0 0.2
2014-Oct-19 22:33N 44°28' E 037°53'0 0.3
2014-Oct-19 21:33N 44°28' E 037°53'1 0.5
2014-Oct-19 20:33N 44°28' E 037°53'0 0.5
2014-Oct-19 19:34N 44°29' E 037°54'6 5.8
2014-Oct-19 18:34N 44°23' E 037°55'9 1.0
2014-Oct-19 09:22N 44°14' E 037°54'1 1.5
2014-Oct-19 08:34N 44°15' E 037°53'1 1.3
2014-Oct-19 07:32N 44°16' E 037°52'1 1.2
2014-Oct-19 06:33N 44°17' E 037°51'1 1.0
2014-Oct-19 05:17N 44°18' E 037°50'1 0.9
2014-Oct-19 04:22N 44°18' E 037°49'2 0.9
2014-Oct-19 02:07N 44°20' E 037°48'1 1.0
2014-Oct-19 01:33N 44°21' E 037°48'1 0.9
2014-Oct-19 00:25N 44°22' E 037°48'1 1.1
2014-Oct-18 23:29N 44°23' E 037°48'1 1.3
2014-Oct-18 22:32N 44°24' E 037°49'1 1.0
2014-Oct-18 21:32N 44°24' E 037°47'9 9.0
2014-Oct-18 20:33N 44°21' E 037°36'4 0.7
2014-Oct-18 14:33N 44°24' E 037°40'3 2.6
2014-Oct-18 13:33N 44°25' E 037°43'2 1.6
2014-Oct-18 12:33N 44°26' E 037°45'2 1.6
2014-Oct-18 11:33N 44°27' E 037°47'7 7.3
2014-Oct-18 10:34N 44°34' E 037°47'1 1.0
2014-Oct-18 09:34N 44°35' E 037°46'2 2.3
2014-Oct-18 08:33N 44°33' E 037°45'2 2.2
2014-Oct-18 07:33N 44°30' E 037°45'3 2.6
2014-Oct-18 06:33N 44°28' E 037°45'2 2.4
2014-Oct-18 05:34N 44°25' E 037°45'4 4.4
2014-Oct-18 04:33N 44°29' E 037°41'5 4.9
2014-Oct-18 03:33N 44°33' E 037°38'1 1.2
2014-Oct-18 02:33N 44°33' E 037°39'1 1.4
2014-Oct-18 01:34N 44°31' E 037°40'2 1.7
2014-Oct-18 00:32N 44°30' E 037°41'1 1.5
2014-Oct-17 23:33N 44°28' E 037°41'1 1.3
2014-Oct-17 22:34N 44°27' E 037°42'1 1.3
2014-Oct-17 21:32N 44°26' E 037°43'1 1.1
2014-Oct-17 20:33N 44°25' E 037°44'1 0.9
2014-Oct-17 19:33N 44°24' E 037°44'1 0.8
2014-Oct-17 18:31N 44°23' E 037°45'1 0.8
2014-Oct-17 17:33N 44°23' E 037°46'1 0.8
2014-Oct-17 16:33N 44°23' E 037°47'1 0.8
2014-Oct-17 15:33N 44°23' E 037°49'1 0.8
2014-Oct-17 14:33N 44°23' E 037°50'1 0.8
2014-Oct-17 13:33N 44°24' E 037°51'1 0.7
2014-Oct-17 12:33N 44°24' E 037°52'1 0.7
2014-Oct-17 11:33N 44°24' E 037°53'1 0.6
2014-Oct-17 10:33N 44°25' E 037°53'0 0.4
2014-Oct-17 09:33N 44°25' E 037°53'0 0.1
2014-Oct-17 08:34N 44°25' E 037°53'1 1.1
2014-Oct-17 07:33N 44°24' E 037°54'1 1.1
2014-Oct-17 06:33N 44°23' E 037°54'1 1.3
2014-Oct-17 05:33N 44°22' E 037°54'6 5.5
2014-Oct-17 04:33N 44°27' E 037°57'1 0.7
2014-Oct-17 03:33N 44°28' E 037°56'2 1.8
2014-Oct-17 02:32N 44°26' E 037°54'2 1.7
2014-Oct-17 01:31N 44°25' E 037°53'2 1.5
2014-Oct-17 00:31N 44°24' E 037°52'1 1.4
2014-Oct-16 23:34N 44°22' E 037°51'3 1.2
2014-Oct-16 21:13N 44°24' E 037°49'710.7
2014-Oct-16 20:33N 44°31' E 037°52'1 0.8
2014-Oct-16 19:33N 44°32' E 037°52'1 1.4
2014-Oct-16 18:33N 44°31' E 037°51'2 1.6
2014-Oct-16 17:33N 44°30' E 037°50'2 1.7
2014-Oct-16 16:33N 44°28' E 037°49'2 1.7
2014-Oct-16 15:33N 44°26' E 037°48'1 0.6
2014-Oct-16 14:32N 44°27' E 037°48'5 4.9
2014-Oct-16 13:33N 44°31' E 037°50'2 2.3
2014-Oct-16 12:33N 44°33' E 037°52'1 0.7
2014-Oct-16 11:33N 44°32' E 037°52'1 0.6
2014-Oct-16 10:34N 44°32' E 037°51'1 0.6
2014-Oct-16 09:33N 44°31' E 037°51'0 0.5
2014-Oct-16 08:33N 44°31' E 037°51'0 0.4
2014-Oct-16 07:33N 44°30' E 037°50'0 0.4
2014-Oct-16 06:32N 44°30' E 037°50'0 0.4
2014-Oct-16 05:31N 44°30' E 037°50'0 0.2
2014-Oct-16 04:33N 44°29' E 037°50'1 0.9
2014-Oct-16 03:33N 44°30' E 037°49'8 8.3
2014-Oct-16 02:33N 44°27' E 037°38'9813.4
2014-Oct-15 19:14N 43°42' E 035°37'2213.3
2014-Oct-15 17:33N 43°32' E 035°10'1713.4
2014-Oct-15 16:16N 43°24' E 034°49'26113.6
2014-Oct-14 21:04N 41°24' E 029°35'813.7
2014-Oct-14 20:29N 41°21' E 029°25'1313.6
2014-Oct-14 19:32N 41°15' E 029°10'181 7.8
2014-Oct-13 20:13N 39°43' E 025°45'4812.6
2014-Oct-13 16:22N 38°59' E 025°18'9912.6
2014-Oct-13 08:30N 37°35' E 024°11'1313.3
2014-Oct-13 07:32N 37°25' E 024°02'4513.1
2014-Oct-13 04:07N 36°47' E 023°32'  
Track history (hours):
 
Tides and Currents Weather Stations Pressure Air Temp Water Temp Dewpoint Dewpoint Depression Visibility Wind Speed Wind Dir Waves Ship Positions

Atlantic Clover

Last reported at 2014-Oct-20 17:33 UTC. Time now 2014-Oct-20 17:57 UTC.
Position N 44°44' E 037°48'.

Length 180 m; draft 6.3 m.

Type: Cargo ship. MMSI: 371263000.

Date/timePositionNaut miles runAvg speedWind from/ knotsBaromVisibWave heightAir tempDewpointWater temp
2014-Oct-20 17:33N 44°44' E 037°48'0 0.0
2014-Oct-20 16:33N 44°44' E 037°48'0 0.0
2014-Oct-20 15:33N 44°44' E 037°48'0 0.0
2014-Oct-20 14:33N 44°44' E 037°48'0 0.0
2014-Oct-20 13:33N 44°44' E 037°48'0 0.0
2014-Oct-20 12:33N 44°44' E 037°48'0 0.0
2014-Oct-20 11:33N 44°44' E 037°48'0 0.0
2014-Oct-20 10:33N 44°44' E 037°48'0 0.0
2014-Oct-20 09:33N 44°44' E 037°48'0 0.0
2014-Oct-20 08:33N 44°44' E 037°48'0 0.0
2014-Oct-20 07:33N 44°44' E 037°48'0 0.0
2014-Oct-20 06:33N 44°44' E 037°48'0 0.0
2014-Oct-20 05:33N 44°44' E 037°48'0 0.0
2014-Oct-20 04:33N 44°44' E 037°48'0 0.0
2014-Oct-20 03:34N 44°44' E 037°48'2 1.9
2014-Oct-20 02:33N 44°42' E 037°49'8 8.3
2014-Oct-20 01:33N 44°34' E 037°51'6 5.9
2014-Oct-20 00:34N 44°28' E 037°52'0 0.4
2014-Oct-19 23:33N 44°28' E 037°52'0 0.2
2014-Oct-19 22:33N 44°28' E 037°53'0 0.3
2014-Oct-19 21:33N 44°28' E 037°53'1 0.5
2014-Oct-19 20:33N 44°28' E 037°53'0 0.5
2014-Oct-19 19:34N 44°29' E 037°54'6 5.8
2014-Oct-19 18:34N 44°23' E 037°55'9 1.0
2014-Oct-19 09:22N 44°14' E 037°54'1 1.5
2014-Oct-19 08:34N 44°15' E 037°53'1 1.3
2014-Oct-19 07:32N 44°16' E 037°52'1 1.2
2014-Oct-19 06:33N 44°17' E 037°51'1 1.0
2014-Oct-19 05:17N 44°18' E 037°50'1 0.9
2014-Oct-19 04:22N 44°18' E 037°49'2 0.9
2014-Oct-19 02:07N 44°20' E 037°48'1 1.0
2014-Oct-19 01:33N 44°21' E 037°48'1 0.9
2014-Oct-19 00:25N 44°22' E 037°48'1 1.1
2014-Oct-18 23:29N 44°23' E 037°48'1 1.3
2014-Oct-18 22:32N 44°24' E 037°49'1 1.0
2014-Oct-18 21:32N 44°24' E 037°47'9 9.0
2014-Oct-18 20:33N 44°21' E 037°36'4 0.7
2014-Oct-18 14:33N 44°24' E 037°40'3 2.6
2014-Oct-18 13:33N 44°25' E 037°43'2 1.6
2014-Oct-18 12:33N 44°26' E 037°45'2 1.6
2014-Oct-18 11:33N 44°27' E 037°47'7 7.3
2014-Oct-18 10:34N 44°34' E 037°47'1 1.0
2014-Oct-18 09:34N 44°35' E 037°46'2 2.3
2014-Oct-18 08:33N 44°33' E 037°45'2 2.2
2014-Oct-18 07:33N 44°30' E 037°45'3 2.6
2014-Oct-18 06:33N 44°28' E 037°45'2 2.4
2014-Oct-18 05:34N 44°25' E 037°45'4 4.4
2014-Oct-18 04:33N 44°29' E 037°41'5 4.9
2014-Oct-18 03:33N 44°33' E 037°38'1 1.2
2014-Oct-18 02:33N 44°33' E 037°39'1 1.4
2014-Oct-18 01:34N 44°31' E 037°40'2 1.7
2014-Oct-18 00:32N 44°30' E 037°41'1 1.5
2014-Oct-17 23:33N 44°28' E 037°41'1 1.3
2014-Oct-17 22:34N 44°27' E 037°42'1 1.3
2014-Oct-17 21:32N 44°26' E 037°43'1 1.1
2014-Oct-17 20:33N 44°25' E 037°44'1 0.9
2014-Oct-17 19:33N 44°24' E 037°44'1 0.8
2014-Oct-17 18:31N 44°23' E 037°45'1 0.8
2014-Oct-17 17:33N 44°23' E 037°46'1 0.8
2014-Oct-17 16:33N 44°23' E 037°47'1 0.8
2014-Oct-17 15:33N 44°23' E 037°49'1 0.8
2014-Oct-17 14:33N 44°23' E 037°50'1 0.8
2014-Oct-17 13:33N 44°24' E 037°51'1 0.7
2014-Oct-17 12:33N 44°24' E 037°52'1 0.7
2014-Oct-17 11:33N 44°24' E 037°53'1 0.6
2014-Oct-17 10:33N 44°25' E 037°53'0 0.4
2014-Oct-17 09:33N 44°25' E 037°53'0 0.1
2014-Oct-17 08:34N 44°25' E 037°53'1 1.1
2014-Oct-17 07:33N 44°24' E 037°54'1 1.1
2014-Oct-17 06:33N 44°23' E 037°54'1 1.3
2014-Oct-17 05:33N 44°22' E 037°54'6 5.5
2014-Oct-17 04:33N 44°27' E 037°57'1 0.7
2014-Oct-17 03:33N 44°28' E 037°56'2 1.8
2014-Oct-17 02:32N 44°26' E 037°54'2 1.7
2014-Oct-17 01:31N 44°25' E 037°53'2 1.5
2014-Oct-17 00:31N 44°24' E 037°52'1 1.4
2014-Oct-16 23:34N 44°22' E 037°51'3 1.2
2014-Oct-16 21:13N 44°24' E 037°49'710.7
2014-Oct-16 20:33N 44°31' E 037°52'1 0.8
2014-Oct-16 19:33N 44°32' E 037°52'1 1.4
2014-Oct-16 18:33N 44°31' E 037°51'2 1.6
2014-Oct-16 17:33N 44°30' E 037°50'2 1.7
2014-Oct-16 16:33N 44°28' E 037°49'2 1.7
2014-Oct-16 15:33N 44°26' E 037°48'1 0.6
2014-Oct-16 14:32N 44°27' E 037°48'5 4.9
2014-Oct-16 13:33N 44°31' E 037°50'2 2.3
2014-Oct-16 12:33N 44°33' E 037°52'1 0.7
2014-Oct-16 11:33N 44°32' E 037°52'1 0.6
2014-Oct-16 10:34N 44°32' E 037°51'1 0.6
2014-Oct-16 09:33N 44°31' E 037°51'0 0.5
2014-Oct-16 08:33N 44°31' E 037°51'0 0.4
2014-Oct-16 07:33N 44°30' E 037°50'0 0.4
2014-Oct-16 06:32N 44°30' E 037°50'0 0.4
2014-Oct-16 05:31N 44°30' E 037°50'0 0.2
2014-Oct-16 04:33N 44°29' E 037°50'1 0.9
2014-Oct-16 03:33N 44°30' E 037°49'8 8.3
2014-Oct-16 02:33N 44°27' E 037°38'9813.4
2014-Oct-15 19:14N 43°42' E 035°37'2213.3
2014-Oct-15 17:33N 43°32' E 035°10'1713.4
2014-Oct-15 16:16N 43°24' E 034°49'26113.6
2014-Oct-14 21:04N 41°24' E 029°35'813.7
2014-Oct-14 20:29N 41°21' E 029°25'1313.6
2014-Oct-14 19:32N 41°15' E 029°10'181 7.8
2014-Oct-13 20:13N 39°43' E 025°45'4812.6
2014-Oct-13 16:22N 38°59' E 025°18'9912.6
2014-Oct-13 08:30N 37°35' E 024°11'1313.3
2014-Oct-13 07:32N 37°25' E 024°02'4513.1
2014-Oct-13 04:07N 36°47' E 023°32'  

Dump ship's entire track history